Aérodrome :
LOGIN :

S'inscrire | Disclaimer

   EN    FR    IT 

 










Légende :    VFR   VFR Marginal   IFR   IFR Intensif   IFR Très Intensif
Visi : 
Plafond : 
>= 8 km
>= 3000ft
5 à 8 km
1000 à 3000 ft
1500m à 5 km
500 à 1000 ft
800 à 1500m
200 à 500 ft
< 800m
< 200 ft
Symboles :   Orages  Brouillard  Fortes neiges  Fortes précipitations  Vent > 20 kt
SIGMETs :   Divers  Orages  Givrage  Turbulence  Onde Orograph.  Cendres Volcan.






- Altitude de l'aérodrome : 124 ft
- Code IATA : RNS


LFRN - Rennes

DERNIER METAR :
  • 021300Z AUTO 12007KT 080V170 CAVOK 15/08 Q1026 NOSIG

METARs EXPIRÉS :
  • 021230Z AUTO 14006KT 100V200 CAVOK 15/08 Q1026 NOSIG
  • 021200Z AUTO 16006KT 110V200 9999 4300 NSC 15/08 Q1026 NOSIG
  • 021130Z AUTO 14005KT 090V190 CAVOK 14/07 Q1026 NOSIG
  • 021100Z AUTO 14004KT 100V180 CAVOK 12/07 Q1026 NOSIG
  • 021030Z AUTO 13005KT CAVOK 11/06 Q1026 NOSIG

TAF TAF LFRN
Valide du 02 à 12h jusqu'au 03 à 12h UTC


021100Z 0212/0312 15008KT CAVOK
BECMG 0218/0220 VRB03KT
BECMG 0222/0224 3000 BR
TEMPO 0300/0309 BKN004
PROB40
TEMPO 0300/0308 0300 FG VV///
BECMG 0308/0310 9999 NSW
BECMG 0310/0312 21006KT SCT010
ATIS : +33 2 99 67 72 50



MET'MAP, la Météo Aéronautique d'un coup d'oeil ! - Copyright ORBIFLY Décembre 2007 - Disclaimer

ORBIFLY MET'MAP TEAM :

Programmation & Développement : Alexandra Zaïnal
Sur une idée originale de : Baudouin d'Aumeries
Assistance à la programmation : Marc-Olivier Méhu
Soutien technique & logistique : Manuel Goepfert

Contact : metmap@orbifly.com




SOURCES & CREDITS :

   NOAA